createdAt,value
2023-02-17T00:03:06.886Z,10
2023-02-17T00:05:08.661Z,9.4
2023-02-17T00:07:10.432Z,9.5
2023-02-17T00:09:12.179Z,8.9
2023-02-17T00:11:17.176Z,8.9
2023-02-17T00:13:18.978Z,9.7
2023-02-17T00:15:20.698Z,11.7
2023-02-17T00:16:23.188Z,12.5
2023-02-17T00:18:24.956Z,10.1
2023-02-17T00:20:26.694Z,10.7
2023-02-17T00:22:28.458Z,11.1
2023-02-17T00:24:33.462Z,11.2
2023-02-17T00:30:38.728Z,11.4
2023-02-17T00:32:40.499Z,11.9
2023-02-17T00:34:42.247Z,11.5
2023-02-17T00:38:49.096Z,10.5
2023-02-17T00:40:50.798Z,11.4
2023-02-17T00:42:52.537Z,13.1
2023-02-17T00:44:54.291Z,14.2
2023-02-17T00:46:56.093Z,14
2023-02-17T00:48:57.826Z,8.3
2023-02-17T00:50:59.590Z,13.7
2023-02-17T00:53:04.582Z,12.4
2023-02-17T00:55:06.323Z,13.4
2023-02-17T00:57:08.113Z,13.9
2023-02-17T00:59:09.861Z,14.3
2023-02-17T01:05:15.151Z,13
2023-02-17T01:07:20.140Z,14
2023-02-17T01:11:23.649Z,13.7
2023-02-17T01:13:52.337Z,13.2
2023-02-17T01:17:55.849Z,13.9
2023-02-17T01:20:00.790Z,8.7
2023-02-17T01:22:02.566Z,13
2023-02-17T01:24:04.251Z,10.6
2023-02-17T01:26:06.248Z,15.5
2023-02-17T01:28:07.775Z,14.5
2023-02-17T01:30:09.620Z,11.9
2023-02-17T01:32:11.302Z,14.4
2023-02-17T01:40:21.581Z,15.3
2023-02-17T01:42:23.354Z,13.7
2023-02-17T01:44:25.112Z,14.5
2023-02-17T01:48:31.892Z,8.7
2023-02-17T01:52:35.400Z,12.7
2023-02-17T01:58:40.671Z,14
2023-02-17T02:00:42.455Z,12.4
2023-02-17T02:06:50.961Z,14
2023-02-17T02:07:53.466Z,12.5
2023-02-17T02:13:58.737Z,12.9
2023-02-17T02:16:03.977Z,11
2023-02-17T02:18:05.505Z,12.8
2023-02-17T02:20:07.287Z,13.3
2023-02-17T02:22:09.037Z,12.4
2023-02-17T02:24:10.803Z,13.4
2023-02-17T02:26:12.597Z,11.7
2023-02-17T02:28:14.314Z,13.2
2023-02-17T02:30:19.366Z,10.3
2023-02-17T02:32:21.070Z,12.4
2023-02-17T02:34:22.853Z,8.5
2023-02-17T02:36:24.609Z,8.6
2023-02-17T02:38:26.378Z,10.4
2023-02-17T02:40:28.126Z,7.5
2023-02-17T02:42:29.901Z,12.2
2023-02-17T02:44:34.891Z,8.7
2023-02-17T02:46:36.656Z,10.9
2023-02-17T02:48:38.419Z,12.1
2023-02-17T02:50:40.164Z,10.1
2023-02-17T02:52:41.949Z,9.9
2023-02-17T02:54:43.699Z,13.6
2023-02-17T02:56:45.461Z,12.3
2023-02-17T02:58:50.508Z,12.1
2023-02-17T03:02:53.993Z,9.8
2023-02-17T03:03:56.559Z,9.8
2023-02-17T03:05:58.258Z,11.3
2023-02-17T03:08:01.584Z,10.1
2023-02-17T03:10:03.272Z,12.4
2023-02-17T03:12:08.279Z,5.1
2023-02-17T03:14:10.067Z,11.7
2023-02-17T03:16:11.800Z,11.2
2023-02-17T03:22:17.048Z,9.8
2023-02-17T03:24:18.809Z,8.9
2023-02-17T03:26:23.809Z,7.5
2023-02-17T03:28:25.559Z,8.3
2023-02-17T03:30:27.355Z,12.7
2023-02-17T03:32:29.053Z,10
2023-02-17T03:36:32.554Z,10.3
2023-02-17T03:42:41.089Z,9.3
2023-02-17T03:46:44.563Z,11.5
2023-02-17T03:48:46.321Z,11.5
2023-02-17T03:54:54.839Z,10.3
2023-02-17T04:00:00.851Z,9.6
2023-02-17T04:02:02.573Z,6.9
2023-02-17T04:04:04.387Z,11.1
2023-02-17T04:06:06.474Z,12.1
2023-02-17T04:08:11.106Z,11.6
2023-02-17T04:10:12.832Z,12.3
2023-02-17T04:12:14.611Z,11.3
2023-02-17T04:14:16.358Z,12.9
2023-02-17T04:16:18.109Z,9.3
2023-02-17T04:18:19.860Z,12.3
2023-02-17T04:20:21.599Z,12.2
2023-02-17T04:22:26.596Z,12.6
2023-02-17T04:24:28.351Z,9.8
2023-02-17T04:26:30.115Z,10.6
2023-02-17T04:28:31.857Z,12.3
2023-02-17T04:30:33.622Z,12.4
2023-02-17T04:34:37.112Z,12.3
2023-02-17T04:36:44.231Z,14.5
2023-02-17T04:38:43.865Z,6.5
2023-02-17T04:42:47.369Z,19.2
2023-02-17T04:44:49.140Z,15.4
2023-02-17T04:46:50.869Z,23.7
2023-02-17T04:48:52.641Z,14.1
2023-02-17T04:50:57.633Z,19.3
2023-02-17T04:57:29.732Z,18.6
2023-02-17T04:59:31.445Z,14.8
2023-02-17T05:01:33.232Z,13.2
2023-02-17T05:05:39.967Z,12.1
2023-02-17T05:07:41.985Z,13.8
2023-02-17T05:09:43.488Z,11.2
2023-02-17T05:11:45.220Z,12.8
2023-02-17T05:13:46.991Z,8.1
2023-02-17T05:15:48.785Z,9.1
2023-02-17T05:17:53.751Z,13.4
2023-02-17T05:19:55.493Z,12.4
2023-02-17T05:21:57.260Z,12.1
2023-02-17T05:23:59.005Z,12.3
2023-02-17T05:26:00.760Z,9.6
2023-02-17T05:28:02.511Z,10.9
2023-02-17T05:30:04.320Z,10.2
2023-02-17T05:32:09.415Z,10.2
2023-02-17T05:34:11.013Z,11.1
2023-02-17T05:36:12.806Z,13.1
2023-02-17T05:38:14.545Z,10.8
2023-02-17T05:40:16.327Z,13.4
2023-02-17T05:42:18.049Z,11.4
2023-02-17T05:46:25.025Z,11.4
2023-02-17T05:50:28.493Z,13.6
2023-02-17T05:51:30.983Z,8.9
2023-02-17T05:53:32.759Z,14.3
2023-02-17T05:55:34.501Z,14.7
2023-02-17T05:57:36.243Z,16.6
2023-02-17T05:59:41.257Z,14.8
2023-02-17T06:01:43.020Z,10.8
2023-02-17T06:03:44.788Z,6.1
2023-02-17T06:07:48.268Z,8.2
2023-02-17T06:09:50.014Z,15
2023-02-17T06:11:51.772Z,17.8
2023-02-17T06:13:56.780Z,15
2023-02-17T06:20:02.064Z,14.9
2023-02-17T06:22:03.830Z,15.4
2023-02-17T06:30:14.093Z,13.4
2023-02-17T06:32:15.821Z,12.2
2023-02-17T06:38:21.115Z,10.4
2023-02-17T06:40:22.863Z,9.3
2023-02-17T06:46:31.363Z,3.3
2023-02-17T06:47:33.861Z,10.7
2023-02-17T06:49:35.595Z,11.5
2023-02-17T06:55:44.101Z,8.8
2023-02-17T07:03:51.143Z,13.7
2023-02-17T07:05:52.874Z,12.1
2023-02-17T07:07:54.632Z,12.8
2023-02-17T07:09:59.623Z,10.8
2023-02-17T07:12:01.392Z,13.3
2023-02-17T07:14:03.157Z,11
2023-02-17T07:16:05.168Z,7.9
2023-02-17T07:18:06.658Z,12.7
2023-02-17T07:20:08.421Z,14.2
2023-02-17T07:22:10.173Z,9.9
2023-02-17T07:24:15.154Z,12.3
2023-02-17T07:26:16.929Z,12.8
2023-02-17T07:28:18.669Z,7.6
2023-02-17T07:30:20.470Z,9.7
2023-02-17T07:32:22.178Z,10.2
2023-02-17T07:34:23.942Z,11.6
2023-02-17T07:38:32.610Z,12.8
2023-02-17T07:40:32.445Z,13.1
2023-02-17T07:42:34.207Z,11.6
2023-02-17T07:43:36.711Z,13.3
2023-02-17T07:45:38.538Z,11
2023-02-17T07:47:40.231Z,10.6
2023-02-17T07:49:41.980Z,12.1
2023-02-17T07:51:47.030Z,9.6
2023-02-17T07:53:48.821Z,11
2023-02-17T07:55:50.488Z,10.3
2023-02-17T07:57:52.280Z,5.9
2023-02-17T07:59:54.027Z,10.5
2023-02-17T08:06:02.520Z,7.1
2023-02-17T08:08:04.299Z,7.1
2023-02-17T08:10:06.032Z,3.9
2023-02-17T08:12:07.801Z,6.7
2023-02-17T08:14:11.562Z,5.1
2023-02-17T08:16:11.315Z,4.8
2023-02-17T08:18:13.109Z,8.1
2023-02-17T08:30:27.030Z,6.7
2023-02-17T08:32:28.685Z,8.2
2023-02-17T08:38:37.140Z,11.7
2023-02-17T08:41:05.739Z,10.8
2023-02-17T08:45:09.248Z,5.5
2023-02-17T08:47:14.284Z,13
2023-02-17T08:49:16.028Z,13
2023-02-17T08:51:17.813Z,16.9
2023-02-17T08:53:19.580Z,13.2
2023-02-17T08:55:21.306Z,11.9
2023-02-17T08:57:23.075Z,12.6
2023-02-17T08:59:26.441Z,14.2
2023-02-17T09:01:31.486Z,7.5
2023-02-17T09:03:33.149Z,11.5
2023-02-17T09:05:34.881Z,13.2
2023-02-17T09:07:36.665Z,8.1
2023-02-17T09:09:38.414Z,7.6
2023-02-17T09:11:40.179Z,8.2
2023-02-17T09:13:42.012Z,5.4
2023-02-17T09:15:47.087Z,6.6
2023-02-17T09:17:48.741Z,6.5
2023-02-17T09:19:50.487Z,5.3
2023-02-17T09:21:52.257Z,4.8
2023-02-17T09:23:54.025Z,7.7
2023-02-17T09:25:55.804Z,7
2023-02-17T09:27:59.757Z,6
2023-02-17T09:30:02.708Z,7.6
2023-02-17T09:32:04.536Z,6.7
2023-02-17T09:34:06.120Z,6.4
2023-02-17T09:35:08.660Z,3.6
2023-02-17T09:37:10.396Z,7.2
2023-02-17T09:41:13.959Z,4.7
2023-02-17T09:45:20.717Z,7.1
2023-02-17T09:47:22.635Z,4.4
2023-02-17T09:49:24.330Z,5.8
2023-02-17T09:51:25.996Z,4.3
2023-02-17T09:53:27.780Z,7
2023-02-17T09:55:29.532Z,10.7
2023-02-17T09:57:34.545Z,5.9
2023-02-17T09:59:36.327Z,7.7
2023-02-17T10:01:38.156Z,4.6
2023-02-17T10:03:39.951Z,14.7
2023-02-17T10:05:41.688Z,6.8
2023-02-17T10:07:43.455Z,9.7
2023-02-17T10:09:45.250Z,7.8
2023-02-17T10:11:50.202Z,11
2023-02-17T10:13:52.009Z,16.3
2023-02-17T10:15:53.839Z,10.1
2023-02-17T10:17:55.566Z,4.6
2023-02-17T10:19:57.424Z,5.7
2023-02-17T10:21:59.119Z,3.9
2023-02-17T10:24:00.892Z,4.4
2023-02-17T10:26:06.302Z,2.7
2023-02-17T10:28:07.754Z,5.9
2023-02-17T10:30:09.453Z,4.8
2023-02-17T10:31:12.049Z,2
2023-02-17T10:33:13.847Z,5.2
2023-02-17T10:35:15.592Z,8.4
2023-02-17T10:37:17.370Z,3.6
2023-02-17T10:41:24.117Z,2.9
2023-02-17T10:43:25.877Z,2.2
2023-02-17T10:45:27.649Z,3.1
2023-02-17T10:47:29.425Z,3.3
2023-02-17T10:49:31.219Z,4.1
2023-02-17T10:51:33.001Z,5.2
2023-02-17T10:53:38.015Z,5.9
2023-02-17T10:55:39.786Z,17
2023-02-17T10:57:41.579Z,12.7
2023-02-17T10:59:43.346Z,8.9
2023-02-17T11:01:45.130Z,15.8
2023-02-17T11:03:46.929Z,16.8
2023-02-17T11:05:48.684Z,18.7
2023-02-17T11:07:53.733Z,9.6
2023-02-17T11:09:55.494Z,10.7
2023-02-17T11:11:57.274Z,10.3
2023-02-17T11:16:00.833Z,11.9
2023-02-17T11:18:02.600Z,8.3
2023-02-17T11:20:04.394Z,4.1
2023-02-17T11:22:10.966Z,6
2023-02-17T11:26:13.403Z,4.3
2023-02-17T11:27:15.898Z,4.5
2023-02-17T11:29:17.684Z,4.8
2023-02-17T11:31:19.531Z,4
2023-02-17T11:33:21.229Z,4.4
2023-02-17T11:35:26.239Z,4.8
2023-02-17T11:37:28.023Z,8.2
2023-02-17T11:39:29.821Z,3.1
2023-02-17T11:41:31.590Z,5.2
2023-02-17T11:43:33.357Z,5.2
2023-02-17T11:45:35.197Z,4.8
2023-02-17T11:47:36.951Z,3.5
2023-02-17T11:49:41.955Z,3.7
2023-02-17T11:51:43.754Z,5.8
2023-02-17T11:53:45.516Z,6.8
2023-02-17T11:55:47.294Z,6.1
2023-02-17T12:08:01.189Z,14.3
2023-02-17T12:10:03.414Z,9.1
2023-02-17T12:12:05.202Z,9.6
2023-02-17T12:14:06.997Z,25.7
2023-02-17T12:16:09.124Z,13.4
2023-02-17T12:18:13.784Z,10.8
2023-02-17T12:20:15.533Z,12.4
2023-02-17T12:22:17.326Z,9.1
2023-02-17T12:30:54.755Z,5.4
2023-02-17T12:32:56.324Z,4.9
2023-02-17T12:36:59.875Z,4.4
2023-02-17T12:41:03.422Z,5.8
2023-02-17T12:43:05.200Z,9.4
2023-02-17T12:45:10.224Z,9.2
2023-02-17T12:47:11.993Z,5.7
2023-02-17T12:49:13.787Z,5.5
2023-02-17T12:51:15.527Z,5.1
2023-02-17T12:53:17.316Z,4.7
2023-02-17T12:55:21.002Z,4.5
2023-02-17T12:57:20.846Z,6.6
2023-02-17T12:59:25.851Z,7.6
2023-02-17T13:01:27.673Z,11
2023-02-17T13:03:29.384Z,8.4
2023-02-17T13:05:31.306Z,6.9
2023-02-17T13:07:32.930Z,8.6
2023-02-17T13:09:34.700Z,7
2023-02-17T13:11:36.478Z,7
2023-02-17T13:13:41.434Z,19.4
2023-02-17T13:15:43.298Z,10.4
2023-02-17T13:17:44.990Z,14.3
2023-02-17T13:18:49.353Z,27.6
2023-02-17T13:20:49.252Z,10.5
2023-02-17T13:22:51.014Z,22.8
2023-02-17T13:24:52.783Z,10.5
2023-02-17T13:26:57.779Z,4.8
2023-02-17T13:29:00.372Z,11.6
2023-02-17T13:31:02.414Z,8.7
2023-02-17T13:33:03.884Z,4.1
2023-02-17T13:35:05.658Z,5.6
2023-02-17T13:37:07.423Z,4.7
2023-02-17T13:39:09.238Z,6.8
2023-02-17T13:41:14.235Z,5.4
2023-02-17T13:43:15.992Z,5.3
2023-02-17T13:45:17.761Z,3.3
2023-02-17T13:47:19.541Z,5.5
2023-02-17T13:49:21.296Z,5.8
2023-02-17T13:51:23.056Z,3.2
2023-02-17T13:53:25.005Z,4.9
2023-02-17T13:55:29.878Z,4
2023-02-17T13:57:31.625Z,4.5
2023-02-17T13:59:33.545Z,3.5
2023-02-17T14:01:35.217Z,6.7
2023-02-17T14:03:36.945Z,4.6
2023-02-17T14:05:38.701Z,4.6
2023-02-17T14:09:45.512Z,4.5
2023-02-17T14:11:47.271Z,3.8
2023-02-17T14:16:53.324Z,4.7
2023-02-17T14:18:55.111Z,4.5
2023-02-17T14:20:56.878Z,4.6
2023-02-17T14:23:04.315Z,5.4
2023-02-17T14:25:03.666Z,18.4
2023-02-17T14:27:05.429Z,18.4
2023-02-17T14:29:07.214Z,14.8
2023-02-17T14:31:09.425Z,10.4
2023-02-17T14:37:17.570Z,19.1
2023-02-17T14:41:21.126Z,7.2
2023-02-17T14:45:24.669Z,11.9
2023-02-17T14:47:26.442Z,6.7
2023-02-17T14:49:28.198Z,5.1
2023-02-17T14:51:34.786Z,5.6
2023-02-17T14:53:36.656Z,5
2023-02-17T14:55:38.312Z,4.5
2023-02-17T14:57:40.103Z,3.9
2023-02-17T14:59:41.860Z,4.2
2023-02-17T15:01:43.725Z,10.8
2023-02-17T15:03:45.442Z,2.6
2023-02-17T15:09:54.025Z,3.8
2023-02-17T15:10:56.532Z,3.7
2023-02-17T15:12:58.309Z,2.7
2023-02-17T15:15:00.114Z,3.3
2023-02-17T15:17:01.869Z,2.8
2023-02-17T15:25:12.248Z,2.6
2023-02-17T15:27:14.065Z,2.1
2023-02-17T15:29:15.804Z,2.4
2023-02-17T15:35:24.411Z,2.3
2023-02-17T15:37:26.244Z,3.3
2023-02-17T15:39:27.974Z,4.7
2023-02-17T15:41:31.574Z,12.9
2023-02-17T15:43:31.564Z,3
2023-02-17T15:45:33.353Z,4
2023-02-17T15:47:38.380Z,3.8
2023-02-17T15:49:40.150Z,5.8
2023-02-17T15:51:41.936Z,3.7
2023-02-17T15:53:43.704Z,4.2
2023-02-17T15:55:45.489Z,7
2023-02-17T15:57:47.264Z,10.8
2023-02-17T15:59:49.065Z,13.5
2023-02-17T16:01:54.106Z,9.9
2023-02-17T16:03:55.872Z,3.8
2023-02-17T16:05:57.630Z,8.3
2023-02-17T16:08:26.250Z,6
2023-02-17T16:10:28.040Z,6.2
2023-02-17T16:12:29.821Z,3
2023-02-17T16:14:34.841Z,4.3
2023-02-17T16:16:36.689Z,2
2023-02-17T16:18:38.411Z,2.4
2023-02-17T16:20:40.192Z,3.6
2023-02-17T16:22:42.129Z,2.9
2023-02-17T16:24:43.755Z,2.5
2023-02-17T16:26:45.533Z,3
2023-02-17T16:28:50.525Z,2.9
2023-02-17T16:32:54.085Z,3.3
2023-02-17T16:34:55.896Z,5
2023-02-17T16:36:57.643Z,2
2023-02-17T16:43:06.244Z,5.1
2023-02-17T16:45:08.010Z,2.9
2023-02-17T16:47:09.787Z,4.7
2023-02-17T16:49:11.572Z,5
2023-02-17T16:51:13.332Z,3.7
2023-02-17T16:59:23.684Z,3.3
2023-02-17T17:01:25.465Z,5.4
2023-02-17T17:02:28.088Z,3.2
2023-02-17T17:04:29.743Z,5.2
2023-02-17T17:06:31.543Z,12.8
2023-02-17T17:08:33.312Z,18.6
2023-02-17T17:10:38.328Z,22.8
2023-02-17T17:12:40.161Z,12
2023-02-17T17:14:41.868Z,15.9
2023-02-17T17:16:43.756Z,20.6
2023-02-17T17:18:45.433Z,9.1
2023-02-17T17:20:47.204Z,15.5
2023-02-17T17:22:49.023Z,11.8
2023-02-17T17:24:54.013Z,12.4
2023-02-17T17:26:55.817Z,8.8
2023-02-17T17:28:57.597Z,7.4
2023-02-17T17:31:00.816Z,5.5
2023-02-17T17:33:01.136Z,7
2023-02-17T17:35:02.958Z,4.5
2023-02-17T17:37:04.717Z,4.3
2023-02-17T17:39:09.732Z,3.7
2023-02-17T17:41:11.553Z,9.1
2023-02-17T17:43:13.302Z,5.5
2023-02-17T17:45:15.095Z,4.8
2023-02-17T17:47:28.138Z,4.3
2023-02-17T17:49:18.649Z,10.5
2023-02-17T17:51:20.418Z,4
2023-02-17T17:53:25.449Z,25.9
2023-02-17T17:55:27.232Z,6.6
2023-02-17T17:57:29.036Z,5.8
2023-02-17T17:58:31.554Z,5.7
2023-02-17T18:02:35.081Z,3.6
2023-02-17T18:04:36.892Z,2.7
2023-02-17T18:08:43.680Z,2.9
2023-02-17T18:12:47.234Z,3.1
2023-02-17T18:14:48.992Z,3.7
2023-02-17T18:16:50.772Z,6.3
2023-02-17T18:18:52.540Z,9.9
2023-02-17T18:20:57.582Z,9.5
2023-02-17T18:22:59.360Z,4.6
2023-02-17T18:25:01.115Z,7.7
2023-02-17T18:27:02.885Z,5.4
2023-02-17T18:29:04.666Z,7.4
2023-02-17T18:31:06.538Z,8.1
2023-02-17T18:33:08.220Z,5.9
2023-02-17T18:35:13.236Z,8.7
2023-02-17T18:39:16.763Z,10.4
2023-02-17T18:41:18.523Z,8.1
2023-02-17T18:43:20.319Z,7.1
2023-02-17T18:45:22.081Z,11.5
2023-02-17T18:47:23.848Z,5.9
2023-02-17T18:49:28.869Z,6.2
2023-02-17T18:51:30.669Z,5
2023-02-17T18:53:32.432Z,5.4
2023-02-17T18:58:38.492Z,7.6
2023-02-17T19:00:40.241Z,8.2
2023-02-17T19:04:47.021Z,6.2
2023-02-17T19:06:48.800Z,5.5
2023-02-17T19:08:50.571Z,5.6
2023-02-17T19:12:54.089Z,5.7
2023-02-17T19:14:55.852Z,6.1
2023-02-17T19:17:00.882Z,6.6
2023-02-17T19:19:02.643Z,9.9
2023-02-17T19:25:07.923Z,6.9
2023-02-17T19:27:09.689Z,7.1
2023-02-17T19:29:11.469Z,7.1
2023-02-17T19:33:18.248Z,7.5
2023-02-17T19:35:20.001Z,18.6
2023-02-17T19:43:27.053Z,6.2
2023-02-17T19:45:32.088Z,15.5
2023-02-17T19:47:33.833Z,9.5
2023-02-17T19:49:35.597Z,56.9
2023-02-17T19:56:09.837Z,15.2
2023-02-17T20:00:14.486Z,16
2023-02-17T20:04:18.006Z,6.9
2023-02-17T20:06:19.781Z,7.4
2023-02-17T20:08:21.536Z,5.7
2023-02-17T20:10:23.314Z,4.8
2023-02-17T20:12:28.321Z,5
2023-02-17T20:14:30.076Z,6.7
2023-02-17T20:16:31.896Z,5.2
2023-02-17T20:18:33.593Z,4.1
2023-02-17T20:20:35.355Z,6.4
2023-02-17T20:22:37.139Z,4.8
2023-02-17T20:30:47.388Z,4.2
2023-02-17T20:32:49.167Z,11.3
2023-02-17T20:45:04.459Z,5
2023-02-17T20:46:07.545Z,5
2023-02-17T20:48:08.739Z,5.4
2023-02-17T20:54:17.247Z,22.1
2023-02-17T20:56:19.002Z,26.2
2023-02-17T21:00:22.533Z,33.9
2023-02-17T21:04:26.029Z,46.5
2023-02-17T21:08:32.827Z,11.5
2023-02-17T21:10:34.582Z,33.2
2023-02-17T21:12:36.324Z,17.3
2023-02-17T21:14:38.052Z,20.8
2023-02-17T21:16:39.879Z,19.2
2023-02-17T21:18:41.573Z,9.5
2023-02-17T21:20:43.356Z,16.4
2023-02-17T21:22:48.344Z,8.4
2023-02-17T21:24:50.083Z,13.1
2023-02-17T21:26:51.840Z,14
2023-02-17T21:28:53.624Z,9.6
2023-02-17T21:32:57.104Z,7.5
2023-02-17T21:41:07.388Z,10.3
2023-02-17T21:42:09.883Z,7.4
2023-02-17T21:50:20.132Z,8.7
2023-02-17T21:58:27.142Z,10.5
2023-02-17T22:00:28.895Z,12.6
2023-02-17T22:02:30.629Z,9.7
2023-02-17T22:04:35.640Z,11.3
2023-02-17T22:06:37.379Z,14.7
2023-02-17T22:08:39.102Z,23.3
2023-02-17T22:10:40.851Z,19.4
2023-02-17T22:12:42.597Z,19
2023-02-17T22:14:44.361Z,25.4
2023-02-17T22:16:46.197Z,26.8
2023-02-17T22:18:51.094Z,25.4
2023-02-17T22:20:52.860Z,15.8
2023-02-17T22:22:54.582Z,17.6
2023-02-17T22:24:56.346Z,20.7
2023-02-17T22:26:58.082Z,27.3
2023-02-17T22:28:59.841Z,16.7
2023-02-17T22:37:10.073Z,11.6
2023-02-17T22:38:12.885Z,14.8
2023-02-17T22:40:14.312Z,14.2
2023-02-17T22:42:16.074Z,14.1
2023-02-17T22:46:22.794Z,14.4
2023-02-17T22:48:24.552Z,12.3
2023-02-17T22:50:26.296Z,12.2
2023-02-17T22:54:29.785Z,12
2023-02-17T22:56:31.513Z,12.8
2023-02-17T22:58:33.253Z,13.5
2023-02-17T23:02:40.007Z,15.5
2023-02-17T23:04:41.778Z,12.4
2023-02-17T23:06:43.503Z,13.7
2023-02-17T23:08:45.179Z,14.9
2023-02-17T23:10:46.942Z,14.1
2023-02-17T23:12:48.660Z,16.2
2023-02-17T23:14:53.628Z,15.2
2023-02-17T23:16:55.427Z,13.1
2023-02-17T23:18:57.246Z,19.1
2023-02-17T23:20:58.902Z,16.6
2023-02-17T23:23:00.594Z,24.3
2023-02-17T23:25:02.337Z,18.1
2023-02-17T23:27:04.072Z,18
2023-02-17T23:29:09.173Z,24.3
2023-02-17T23:31:10.891Z,31.5
2023-02-17T23:33:12.483Z,32.4
2023-02-17T23:35:41.089Z,33.4
2023-02-17T23:37:42.817Z,24.2
2023-02-17T23:39:44.549Z,31.9
2023-02-17T23:41:49.519Z,29.6
2023-02-17T23:43:51.239Z,31.4
2023-02-17T23:45:53.119Z,26.7
2023-02-17T23:47:54.725Z,25.1
2023-02-17T23:49:56.477Z,23.8
2023-02-17T23:51:58.199Z,25.1
2023-02-17T23:53:59.938Z,25.5
2023-02-17T23:56:05.005Z,27.3
2023-02-17T23:58:06.640Z,24.4
